createdAt,value
2018-08-09T00:00:58.791Z,55.30
2018-08-09T00:03:27.272Z,55.70
2018-08-09T00:05:55.793Z,55.70
2018-08-09T00:08:24.285Z,55.50
2018-08-09T00:10:52.837Z,55.40
2018-08-09T00:13:21.330Z,55.80
2018-08-09T00:15:49.899Z,56.10
2018-08-09T00:18:18.427Z,56.40
2018-08-09T00:20:46.893Z,56.30
2018-08-09T00:23:15.311Z,56.30
2018-08-09T00:25:43.747Z,56.40
2018-08-09T00:28:12.227Z,56.20
2018-08-09T00:30:40.641Z,57.00
2018-08-09T00:33:09.089Z,57.00
2018-08-09T00:35:37.541Z,56.60
2018-08-09T00:38:05.979Z,56.90
2018-08-09T00:40:34.437Z,56.70
2018-08-09T00:43:02.921Z,56.80
2018-08-09T00:45:31.399Z,56.70
2018-08-09T00:47:59.847Z,56.90
2018-08-09T00:50:28.305Z,57.20
2018-08-09T00:52:56.773Z,56.80
2018-08-09T00:55:25.244Z,57.10
2018-08-09T00:57:53.683Z,57.40
2018-08-09T01:00:22.133Z,57.70
2018-08-09T01:02:50.557Z,57.70
2018-08-09T01:05:19.039Z,57.40
2018-08-09T01:07:47.514Z,57.80
2018-08-09T01:10:15.928Z,57.60
2018-08-09T01:12:44.394Z,57.40
2018-08-09T01:15:12.896Z,58.00
2018-08-09T01:17:41.384Z,58.40
2018-08-09T01:20:09.905Z,58.40
2018-08-09T01:22:38.382Z,58.20
2018-08-09T01:25:06.900Z,58.10
2018-08-09T01:27:35.358Z,58.70
2018-08-09T01:30:04.425Z,57.90
2018-08-09T01:32:32.894Z,58.40
2018-08-09T01:35:01.406Z,58.80
2018-08-09T01:37:29.901Z,58.40
2018-08-09T01:39:58.450Z,58.60
2018-08-09T01:42:37.883Z,58.30
2018-08-09T01:45:06.456Z,58.60
2018-08-09T01:47:34.908Z,59.30
2018-08-09T01:50:03.571Z,58.90
2018-08-09T01:52:32.076Z,58.90
2018-08-09T01:55:00.665Z,58.50
2018-08-09T01:57:29.146Z,59.60
2018-08-09T01:59:58.092Z,59.80
2018-08-09T02:02:27.041Z,59.40
2018-08-09T02:04:56.245Z,59.70
2018-08-09T02:07:24.737Z,60.00
2018-08-09T02:09:53.233Z,60.80
2018-08-09T02:12:21.715Z,59.90
2018-08-09T02:14:50.416Z,59.70
2018-08-09T02:17:18.984Z,60.40
2018-08-09T02:19:47.445Z,60.40
2018-08-09T02:22:15.982Z,61.00
2018-08-09T02:24:44.828Z,61.00
2018-08-09T02:27:13.732Z,61.40
2018-08-09T02:29:44.174Z,61.60
2018-08-09T02:32:12.697Z,62.10
2018-08-09T02:34:41.267Z,62.30
2018-08-09T02:37:10.108Z,62.40
2018-08-09T02:39:38.968Z,62.10
2018-08-09T02:42:07.723Z,61.70
2018-08-09T02:44:36.277Z,62.80
2018-08-09T02:47:04.776Z,63.00
2018-08-09T02:49:33.220Z,63.00
2018-08-09T02:52:01.691Z,63.20
2018-08-09T02:54:30.189Z,63.80
2018-08-09T02:56:58.661Z,63.60
2018-08-09T02:59:27.237Z,64.70
2018-08-09T03:01:55.763Z,64.30
2018-08-09T03:04:24.438Z,65.10
2018-08-09T03:06:52.964Z,64.00
2018-08-09T03:09:21.410Z,65.10
2018-08-09T03:11:49.960Z,64.40
2018-08-09T03:14:18.533Z,64.00
2018-08-09T03:16:47.109Z,64.20
2018-08-09T03:19:16.128Z,64.70
2018-08-09T03:21:45.128Z,65.10
2018-08-09T03:24:23.437Z,65.50
2018-08-09T03:26:52.238Z,66.10
2018-08-09T03:29:20.738Z,65.70
2018-08-09T03:31:49.246Z,65.50
2018-08-09T03:34:17.691Z,64.10
2018-08-09T03:36:46.175Z,65.40
2018-08-09T03:39:14.655Z,66.50
2018-08-09T03:41:43.479Z,65.80
2018-08-09T03:44:11.990Z,66.10
2018-08-09T03:46:40.598Z,66.50
2018-08-09T03:49:09.107Z,65.70
2018-08-09T03:51:37.608Z,65.90
2018-08-09T03:54:06.180Z,66.20
2018-08-09T03:56:34.776Z,65.30
2018-08-09T03:59:03.384Z,65.70
2018-08-09T04:01:31.848Z,65.60
2018-08-09T04:04:01.261Z,66.10
2018-08-09T04:06:30.972Z,66.80
2018-08-09T04:08:59.464Z,66.00
2018-08-09T04:11:28.000Z,66.50
2018-08-09T04:13:56.504Z,66.10
2018-08-09T04:16:24.987Z,66.20
2018-08-09T04:18:53.808Z,64.80
2018-08-09T04:21:22.257Z,66.50
2018-08-09T04:23:50.747Z,65.90
2018-08-09T04:26:19.224Z,65.40
2018-08-09T04:28:47.716Z,64.50
2018-08-09T04:31:16.206Z,65.30
2018-08-09T04:33:44.682Z,64.60
2018-08-09T04:36:19.280Z,64.80
2018-08-09T04:38:48.789Z,64.50
2018-08-09T04:41:17.296Z,64.10
2018-08-09T04:43:45.751Z,64.00
2018-08-09T04:46:14.309Z,62.80
2018-08-09T04:48:42.759Z,62.70
2018-08-09T04:51:11.309Z,62.30
2018-08-09T04:53:39.794Z,62.30
2018-08-09T04:56:08.277Z,61.60
2018-08-09T04:58:36.789Z,60.70
2018-08-09T05:01:05.260Z,60.10
2018-08-09T05:03:34.449Z,60.30
2018-08-09T05:06:03.449Z,59.60
2018-08-09T05:08:32.074Z,58.80
2018-08-09T05:11:00.554Z,57.40
2018-08-09T05:13:29.042Z,58.10
2018-08-09T05:15:57.541Z,58.50
2018-08-09T05:18:26.008Z,57.30
2018-08-09T05:20:54.530Z,57.80
2018-08-09T05:23:23.458Z,57.00
2018-08-09T05:25:51.980Z,57.40
2018-08-09T05:28:21.489Z,58.50
2018-08-09T05:30:49.996Z,57.70
2018-08-09T05:33:18.628Z,56.50
2018-08-09T05:35:47.174Z,57.50
2018-08-09T05:38:16.858Z,56.80
2018-08-09T05:40:45.637Z,56.40
2018-08-09T05:43:14.276Z,56.60
2018-08-09T05:45:43.416Z,56.40
2018-08-09T05:48:12.908Z,56.20
2018-08-09T05:50:41.775Z,55.40
2018-08-09T05:53:10.262Z,54.40
2018-08-09T05:55:38.743Z,53.80
2018-08-09T05:58:07.318Z,54.70
2018-08-09T06:00:35.909Z,55.40
2018-08-09T06:03:04.390Z,54.70
2018-08-09T06:05:32.862Z,54.90
2018-08-09T06:08:01.688Z,53.60
2018-08-09T06:10:30.480Z,55.30
2018-08-09T06:12:58.970Z,54.30
2018-08-09T06:15:27.513Z,54.00
2018-08-09T06:17:58.522Z,53.90
2018-08-09T06:20:26.963Z,52.50
2018-08-09T06:22:55.622Z,51.30
2018-08-09T06:25:24.412Z,51.90
2018-08-09T06:27:53.335Z,51.70
2018-08-09T06:30:21.806Z,52.40
2018-08-09T06:32:50.322Z,52.20
2018-08-09T06:35:18.832Z,52.60
2018-08-09T06:37:47.334Z,53.00
2018-08-09T06:40:15.880Z,51.50
2018-08-09T06:42:44.950Z,51.20
2018-08-09T06:45:13.458Z,51.70
2018-08-09T06:47:41.962Z,51.60
2018-08-09T06:50:11.549Z,51.50
2018-08-09T06:52:40.283Z,53.20
2018-08-09T06:55:08.801Z,52.80
2018-08-09T06:57:37.316Z,52.00
2018-08-09T07:00:09.794Z,49.40
2018-08-09T07:19:43.693Z,47.50
2018-08-09T07:22:12.205Z,48.00
2018-08-09T07:24:40.653Z,47.70
2018-08-09T07:27:09.095Z,46.20
2018-08-09T07:29:37.551Z,46.40
2018-08-09T07:32:06.192Z,47.10
2018-08-09T07:34:34.719Z,49.90
2018-08-09T07:37:03.297Z,48.70
2018-08-09T07:39:32.088Z,46.20
2018-08-09T07:42:00.535Z,45.40
2018-08-09T07:44:29.229Z,45.30
2018-08-09T07:46:57.750Z,46.20
2018-08-09T07:49:26.263Z,45.30
2018-08-09T07:51:54.809Z,44.10
2018-08-09T07:54:23.357Z,46.10
2018-08-09T07:56:51.800Z,48.30
2018-08-09T07:59:20.268Z,48.60
2018-08-09T08:01:48.742Z,45.50
2018-08-09T08:04:17.262Z,45.20
2018-08-09T08:06:45.741Z,45.00
2018-08-09T08:09:14.200Z,45.50
2018-08-09T08:11:42.657Z,44.00
2018-08-09T08:14:11.174Z,44.60
2018-08-09T08:16:39.696Z,42.80
2018-08-09T08:19:08.361Z,42.60
2018-08-09T08:21:36.876Z,41.50
2018-08-09T08:24:05.504Z,42.50
2018-08-09T08:26:34.203Z,42.70
2018-08-09T08:29:02.664Z,42.60
2018-08-09T08:31:31.203Z,41.60
2018-08-09T08:33:59.687Z,41.30
2018-08-09T08:36:29.474Z,40.20
2018-08-09T08:38:58.169Z,40.10
2018-08-09T08:41:27.327Z,41.20
2018-08-09T08:43:55.830Z,39.30
2018-08-09T08:46:24.803Z,39.90
2018-08-09T08:48:53.565Z,38.70
2018-08-09T08:51:22.086Z,39.50
2018-08-09T08:53:50.615Z,41.70
2018-08-09T08:56:19.413Z,38.70
2018-08-09T08:58:48.024Z,40.40
2018-08-09T09:01:16.575Z,42.00
2018-08-09T09:03:45.144Z,43.20
2018-08-09T09:06:13.657Z,38.70
2018-08-09T09:08:42.529Z,39.90
2018-08-09T09:11:11.395Z,37.10
2018-08-09T09:13:40.103Z,38.80
2018-08-09T09:16:08.575Z,38.80
2018-08-09T09:18:37.149Z,38.10
2018-08-09T09:21:05.857Z,38.30
2018-08-09T09:23:35.124Z,37.60
2018-08-09T09:26:04.496Z,37.90
2018-08-09T09:28:33.130Z,38.10
2018-08-09T09:31:01.652Z,39.40
2018-08-09T09:33:30.288Z,40.30
2018-08-09T09:35:58.786Z,37.90
2018-08-09T09:38:27.424Z,35.50
2018-08-09T09:40:57.262Z,36.90
2018-08-09T09:43:25.913Z,36.30
2018-08-09T09:45:54.904Z,37.00
2018-08-09T09:48:23.770Z,37.10
2018-08-09T09:50:53.028Z,36.90
2018-08-09T09:53:21.548Z,36.40
2018-08-09T09:55:50.258Z,35.70
2018-08-09T09:58:18.862Z,36.90
2018-08-09T10:00:53.144Z,35.80
2018-08-09T10:03:22.332Z,34.60
2018-08-09T10:05:51.017Z,34.90
2018-08-09T10:08:19.816Z,35.70
2018-08-09T10:10:49.336Z,35.10
2018-08-09T10:13:17.766Z,34.70
2018-08-09T10:15:46.203Z,34.50
2018-08-09T10:18:14.668Z,35.10
2018-08-09T10:20:43.144Z,34.80
2018-08-09T10:23:11.609Z,34.50
2018-08-09T10:25:40.110Z,35.20
2018-08-09T10:28:08.680Z,34.50
2018-08-09T10:30:37.599Z,34.20
2018-08-09T10:33:06.146Z,33.50
2018-08-09T10:35:34.757Z,33.10
2018-08-09T10:38:03.246Z,33.70
2018-08-09T10:40:31.697Z,35.30
2018-08-09T10:43:01.342Z,34.30
2018-08-09T10:45:29.852Z,33.20
2018-08-09T10:47:58.321Z,34.50
2018-08-09T10:50:26.935Z,32.90
2018-08-09T10:52:55.635Z,32.70
2018-08-09T10:55:24.055Z,33.90
2018-08-09T10:57:52.561Z,33.40
2018-08-09T11:00:21.359Z,32.60
2018-08-09T11:02:49.975Z,32.50
2018-08-09T11:05:18.416Z,32.80
2018-08-09T11:07:48.330Z,32.30
2018-08-09T11:10:17.286Z,33.60
2018-08-09T11:12:47.983Z,32.50
2018-08-09T11:15:16.527Z,32.30
2018-08-09T11:17:45.139Z,32.30
2018-08-09T11:20:13.674Z,31.60
2018-08-09T11:22:42.940Z,31.40
2018-08-09T11:25:11.428Z,31.70
2018-08-09T11:27:39.993Z,31.70
2018-08-09T11:30:08.899Z,30.20
2018-08-09T11:32:37.279Z,30.80
2018-08-09T11:35:06.118Z,31.20
2018-08-09T11:37:34.782Z,30.70
2018-08-09T11:40:03.302Z,30.00
2018-08-09T11:42:31.874Z,30.60
2018-08-09T11:45:00.287Z,30.00
2018-08-09T11:47:28.763Z,29.40
2018-08-09T11:49:57.282Z,29.40
2018-08-09T11:52:25.735Z,29.00
2018-08-09T11:54:54.156Z,28.10
2018-08-09T11:57:23.054Z,28.40
2018-08-09T11:59:52.700Z,29.00
2018-08-09T12:02:21.317Z,28.40
2018-08-09T12:04:50.056Z,28.10
2018-08-09T12:07:18.564Z,28.30
2018-08-09T12:09:46.975Z,28.90
2018-08-09T12:12:15.499Z,29.10
2018-08-09T12:14:44.040Z,29.50
2018-08-09T12:17:13.076Z,28.60
2018-08-09T12:19:41.648Z,29.50
2018-08-09T12:22:10.229Z,31.20
2018-08-09T12:24:44.503Z,31.30
2018-08-09T12:27:14.374Z,29.60
2018-08-09T12:29:44.496Z,29.90
2018-08-09T12:32:14.331Z,30.60
2018-08-09T12:34:43.102Z,30.50
2018-08-09T12:37:11.808Z,31.60
2018-08-09T12:39:40.746Z,32.20
2018-08-09T12:42:09.956Z,31.00
2018-08-09T12:44:38.586Z,30.10
2018-08-09T12:47:07.472Z,29.80
2018-08-09T12:49:36.012Z,30.20
2018-08-09T12:52:04.686Z,30.20
2018-08-09T12:54:33.289Z,30.50
2018-08-09T12:57:01.948Z,31.20
2018-08-09T12:59:31.098Z,31.70
2018-08-09T13:01:59.658Z,32.00
2018-08-09T13:04:28.683Z,31.10
2018-08-09T13:07:06.458Z,30.10
2018-08-09T13:09:38.202Z,30.70
2018-08-09T13:12:06.742Z,31.20
2018-08-09T13:14:35.363Z,30.30
2018-08-09T13:17:03.864Z,30.30
2018-08-09T13:19:32.412Z,30.20
2018-08-09T13:22:01.009Z,30.10
2018-08-09T13:24:29.508Z,30.90
2018-08-09T13:26:57.997Z,31.10
2018-08-09T13:29:26.418Z,30.60
2018-08-09T13:31:55.038Z,30.40
2018-08-09T13:34:23.620Z,30.00
2018-08-09T13:36:52.312Z,29.50
2018-08-09T13:39:20.916Z,28.50
2018-08-09T13:41:49.445Z,29.30
2018-08-09T13:44:18.175Z,29.30
2018-08-09T13:46:46.745Z,29.60
2018-08-09T13:49:15.203Z,30.10
2018-08-09T13:51:43.769Z,30.00
2018-08-09T13:54:12.325Z,29.70
2018-08-09T13:56:40.885Z,29.80
2018-08-09T13:59:09.492Z,29.40
2018-08-09T14:01:38.069Z,29.30
2018-08-09T14:04:06.743Z,29.20
2018-08-09T14:06:35.151Z,28.90
2018-08-09T14:09:06.472Z,29.10
2018-08-09T14:11:34.887Z,28.70
2018-08-09T14:14:03.453Z,28.40
2018-08-09T14:16:31.871Z,28.00
2018-08-09T14:19:00.284Z,27.60
2018-08-09T14:21:28.718Z,27.70
2018-08-09T14:23:57.155Z,27.90
2018-08-09T14:26:25.549Z,28.30
2018-08-09T14:28:53.957Z,28.60
2018-08-09T14:31:22.344Z,28.40
2018-08-09T14:33:50.735Z,28.20
2018-08-09T14:36:19.141Z,28.10
2018-08-09T14:38:47.575Z,28.40
2018-08-09T14:41:15.941Z,28.50
2018-08-09T14:43:44.339Z,28.50
2018-08-09T14:46:12.765Z,28.00
2018-08-09T14:48:41.292Z,27.90
2018-08-09T14:51:09.693Z,27.80
2018-08-09T14:53:38.176Z,27.60
2018-08-09T14:56:06.618Z,27.20
2018-08-09T14:58:35.110Z,27.30
2018-08-09T15:01:03.591Z,27.10
2018-08-09T15:03:32.104Z,27.00
2018-08-09T15:06:00.561Z,27.20
2018-08-09T15:08:28.945Z,27.40
2018-08-09T15:10:57.335Z,27.50
2018-08-09T15:13:25.743Z,27.70
2018-08-09T15:15:54.143Z,28.00
2018-08-09T15:18:22.575Z,28.30
2018-08-09T15:20:50.990Z,28.30
2018-08-09T15:23:19.391Z,28.50
2018-08-09T15:25:47.807Z,28.60
2018-08-09T15:28:16.271Z,28.50
2018-08-09T15:30:44.723Z,28.50
2018-08-09T15:33:13.141Z,28.80
2018-08-09T15:35:41.509Z,29.00
2018-08-09T15:38:10.013Z,29.10
2018-08-09T15:40:38.339Z,29.00
2018-08-09T15:43:06.754Z,29.40
2018-08-09T15:45:35.100Z,29.90
2018-08-09T15:48:03.566Z,29.60
2018-08-09T15:50:31.926Z,29.60
2018-08-09T15:53:00.440Z,29.50
2018-08-09T15:55:28.845Z,29.50
2018-08-09T15:57:57.242Z,29.50
2018-08-09T16:00:25.637Z,29.60
2018-08-09T16:02:54.066Z,29.80
2018-08-09T16:05:22.545Z,30.20
2018-08-09T16:07:51.074Z,30.50
2018-08-09T16:10:19.600Z,30.10
2018-08-09T16:12:48.472Z,30.20
2018-08-09T16:15:18.350Z,30.60
2018-08-09T16:17:47.731Z,30.50
2018-08-09T16:20:16.410Z,30.90
2018-08-09T16:22:45.561Z,31.00
2018-08-09T16:25:15.321Z,31.10
2018-08-09T16:27:43.913Z,31.00
2018-08-09T16:30:18.859Z,30.70
2018-08-09T16:32:47.440Z,31.00
2018-08-09T16:35:15.970Z,31.00
2018-08-09T16:37:45.196Z,32.00
2018-08-09T16:40:16.600Z,31.70
2018-08-09T16:42:45.161Z,32.00
2018-08-09T16:45:15.207Z,32.10
2018-08-09T16:47:43.773Z,32.10
2018-08-09T16:50:14.683Z,32.20
2018-08-09T16:52:43.218Z,32.10
2018-08-09T16:55:13.286Z,32.40
2018-08-09T16:57:42.044Z,32.40
2018-08-09T17:00:12.626Z,32.20
2018-08-09T17:02:41.115Z,32.30
2018-08-09T17:05:12.126Z,32.40
2018-08-09T17:07:41.004Z,32.50
2018-08-09T17:10:10.391Z,33.00
2018-08-09T17:12:39.613Z,33.10
2018-08-09T17:15:13.817Z,33.90
2018-08-09T17:17:42.337Z,36.80
2018-08-09T17:20:16.816Z,44.80
2018-08-09T17:22:45.239Z,49.20
2018-08-09T17:25:14.284Z,59.60
2018-08-09T17:27:44.072Z,87.20
2018-08-09T17:30:14.018Z,78.10
2018-08-09T17:32:42.500Z,77.00
2018-08-09T17:35:12.086Z,75.50
2018-08-09T17:37:40.616Z,70.20
2018-08-09T17:40:13.265Z,71.40
2018-08-09T17:42:41.840Z,60.70
2018-08-09T17:45:11.235Z,67.40
2018-08-09T17:47:39.770Z,59.80
2018-08-09T17:50:08.774Z,57.70
2018-08-09T17:52:37.651Z,58.80
2018-08-09T17:55:08.479Z,72.50
2018-08-09T17:57:36.969Z,71.60
2018-08-09T18:00:08.062Z,67.80
2018-08-09T18:02:36.714Z,63.80
2018-08-09T18:05:06.670Z,62.40
2018-08-09T18:07:35.412Z,63.30
2018-08-09T18:10:04.998Z,64.90
2018-08-09T18:12:33.495Z,67.20
2018-08-09T18:15:01.936Z,77.30
2018-08-09T18:17:30.438Z,86.20
2018-08-09T18:22:21.658Z,92.10
2018-08-09T18:24:50.078Z,93.50
2018-08-09T18:27:18.487Z,92.80
2018-08-09T18:29:46.985Z,93.20
2018-08-09T18:32:15.411Z,91.90
2018-08-09T18:34:44.254Z,91.50
2018-08-09T18:37:12.814Z,91.80
2018-08-09T18:39:42.363Z,90.40
2018-08-09T18:42:11.697Z,90.10
2018-08-09T18:44:40.508Z,90.00
2018-08-09T18:47:09.591Z,89.90
2018-08-09T18:49:38.427Z,87.80
2018-08-09T18:52:07.142Z,89.30
2018-08-09T18:54:35.837Z,89.40
2018-08-09T18:57:08.695Z,91.40
2018-08-09T18:59:37.282Z,89.70
2018-08-09T19:02:05.943Z,90.70
2018-08-09T19:04:35.034Z,89.50
2018-08-09T19:07:04.071Z,89.70
2018-08-09T19:09:33.013Z,89.70
2018-08-09T19:12:02.056Z,88.40
2018-08-09T19:14:32.365Z,91.50
2018-08-09T19:17:01.133Z,89.80
2018-08-09T19:19:30.170Z,89.00
2018-08-09T19:21:58.857Z,87.90
2018-08-09T19:24:27.737Z,88.80
2018-08-09T19:26:57.037Z,89.60
2018-08-09T19:29:25.681Z,89.20
2018-08-09T19:31:54.283Z,90.70
2018-08-09T19:34:22.905Z,89.40
2018-08-09T19:36:51.547Z,87.90
2018-08-09T19:39:20.290Z,85.80
2018-08-09T19:41:49.012Z,88.30
2018-08-09T19:44:17.617Z,85.20
2018-08-09T19:46:46.737Z,85.50
2018-08-09T19:49:15.447Z,85.60
2018-08-09T19:51:44.363Z,84.80
2018-08-09T19:54:12.955Z,84.50
2018-08-09T19:56:41.621Z,84.40
2018-08-09T19:59:10.200Z,82.80
2018-08-09T20:01:38.789Z,83.60
2018-08-09T20:04:07.425Z,82.40
2018-08-09T20:06:35.994Z,83.50
2018-08-09T20:09:06.453Z,82.80
2018-08-09T20:11:35.053Z,84.10
2018-08-09T20:14:03.905Z,82.90
2018-08-09T20:16:32.613Z,84.80
2018-08-09T20:19:01.295Z,87.00
2018-08-09T20:21:29.972Z,82.80
2018-08-09T20:23:58.844Z,84.80
2018-08-09T20:26:27.507Z,86.00
2018-08-09T20:28:56.662Z,87.90
2018-08-09T20:31:25.482Z,87.70
2018-08-09T20:33:54.566Z,86.90
2018-08-09T20:36:23.881Z,88.40
2018-08-09T20:38:52.687Z,87.50
2018-08-09T20:41:21.730Z,86.30
2018-08-09T20:43:50.356Z,85.30
2018-08-09T20:46:18.962Z,84.90
2018-08-09T20:48:47.844Z,85.00
2018-08-09T20:51:16.404Z,84.10
2018-08-09T20:53:46.517Z,85.10
2018-08-09T20:56:15.132Z,83.10
2018-08-09T20:58:43.868Z,82.80
2018-08-09T21:01:12.606Z,84.10
2018-08-09T21:03:41.720Z,82.90
2018-08-09T21:06:10.388Z,82.10
2018-08-09T21:08:39.949Z,83.00
2018-08-09T21:11:09.294Z,83.90
2018-08-09T21:13:38.316Z,83.40
2018-08-09T21:16:07.018Z,85.10
2018-08-09T21:18:36.094Z,83.10
2018-08-09T21:21:04.796Z,81.60
2018-08-09T21:23:33.474Z,83.10
2018-08-09T21:26:02.021Z,83.80
2018-08-09T21:28:31.411Z,82.60
2018-08-09T21:30:59.950Z,83.20
2018-08-09T21:33:28.526Z,81.50
2018-08-09T21:35:57.399Z,79.80
2018-08-09T21:38:25.988Z,77.40
2018-08-09T21:40:54.572Z,77.80
2018-08-09T21:43:23.165Z,76.50
2018-08-09T21:45:51.688Z,77.20
2018-08-09T21:48:20.272Z,77.50
2018-08-09T21:50:48.865Z,77.10
2018-08-09T21:53:17.469Z,78.20
2018-08-09T21:55:45.992Z,77.50
2018-08-09T21:58:15.417Z,77.50
2018-08-09T22:00:55.378Z,76.50
2018-08-09T22:03:25.729Z,76.40
2018-08-09T22:05:59.461Z,75.80
2018-08-09T22:08:33.241Z,74.90
2018-08-09T22:11:07.098Z,73.90
2018-08-09T22:13:40.841Z,74.20
2018-08-09T22:16:14.701Z,74.30
2018-08-09T22:18:48.590Z,73.50
2018-08-09T22:21:22.272Z,74.10
2018-08-09T22:23:50.837Z,74.50
2018-08-09T22:26:19.377Z,73.90
2018-08-09T22:28:48.138Z,74.20
2018-08-09T22:31:16.909Z,73.60
2018-08-09T22:33:45.639Z,72.70
2018-08-09T22:36:14.198Z,73.00
2018-08-09T22:38:42.719Z,72.00
2018-08-09T22:41:11.245Z,71.40
2018-08-09T22:43:39.736Z,71.50
2018-08-09T22:46:08.197Z,71.20
2018-08-09T22:48:36.785Z,71.20
2018-08-09T22:51:05.323Z,71.60
2018-08-09T22:53:33.834Z,72.50
2018-08-09T22:56:02.398Z,71.20
2018-08-09T22:58:30.884Z,71.40
2018-08-09T23:00:59.352Z,71.30
2018-08-09T23:03:27.839Z,71.60
2018-08-09T23:05:56.325Z,70.80
2018-08-09T23:08:24.806Z,70.40
2018-08-09T23:10:53.278Z,69.00
2018-08-09T23:13:21.822Z,68.70
2018-08-09T23:15:50.394Z,68.20
2018-08-09T23:18:18.846Z,68.80
2018-08-09T23:20:47.404Z,67.40
2018-08-09T23:23:15.892Z,68.40
2018-08-09T23:25:44.448Z,68.30
2018-08-09T23:28:12.930Z,67.90
2018-08-09T23:30:41.504Z,68.00
2018-08-09T23:33:10.028Z,68.50
2018-08-09T23:35:38.542Z,67.30
2018-08-09T23:38:07.074Z,68.30
2018-08-09T23:40:35.509Z,68.70
2018-08-09T23:43:04.001Z,67.90
2018-08-09T23:45:32.472Z,68.70
2018-08-09T23:48:01.005Z,68.60
2018-08-09T23:50:29.443Z,68.00
2018-08-09T23:52:57.929Z,67.30
2018-08-09T23:55:26.415Z,66.80
2018-08-09T23:57:54.908Z,68.10
